Time;durP1;ratioP1;P1;durP2;ratioP2;P2;SDS_P1;SDS_P2;PMS_P1;PMS_P2;Temp;Humidity;BMP_temperature;BMP_pressure;BME280_temperature;BME280_humidity;BME280_pressure;Samples;Min_cycle;Max_cycle;Signal;HPM_P1;HPM_P2
2020/12/15 00:00:12;;;;;;;7.50;6.80;;;;;;;;;;4902264;29;20253;-58
2020/12/15 00:02:38;;;;;;;7.83;6.90;;;;;;;;;;4902907;29;20214;-58
2020/12/15 00:05:04;;;;;;;7.33;6.63;;;;;;;;;;4902242;29;20211;-58
2020/12/15 00:07:29;;;;;;;8.03;7.23;;;;;;;;;;4905552;29;20207;-58
2020/12/15 00:09:54;;;;;;;8.10;7.30;;;;;;;;;;4906006;29;20189;-58
2020/12/15 00:12:19;;;;;;;8.67;7.77;;;;;;;;;;4905799;29;20295;-58
2020/12/15 00:14:45;;;;;;;9.70;7.23;;;;;;;;;;4905937;29;20199;-58
2020/12/15 00:17:10;;;;;;;8.83;7.77;;;;;;;;;;4904377;29;20214;-58
2020/12/15 00:19:35;;;;;;;9.60;8.17;;;;;;;;;;4904501;29;20206;-58
2020/12/15 00:22:01;;;;;;;9.60;7.93;;;;;;;;;;4906110;29;20273;-58
2020/12/15 00:24:26;;;;;;;8.73;7.83;;;;;;;;;;4906497;29;20223;-58
2020/12/15 00:26:51;;;;;;;10.17;8.37;;;;;;;;;;4920025;29;20183;-58
2020/12/15 00:29:17;;;;;;;10.00;8.20;;;;;;;;;;4920290;29;20859;-58
2020/12/15 00:31:43;;;;;;;9.80;8.67;;;;;;;;;;4906839;29;20192;-58
2020/12/15 00:34:08;;;;;;;9.87;8.57;;;;;;;;;;4906503;29;21049;-58
2020/12/15 00:36:33;;;;;;;9.70;8.70;;;;;;;;;;4904305;29;20262;-58
2020/12/15 00:38:59;;;;;;;11.17;8.90;;;;;;;;;;4904696;29;20273;-58
2020/12/15 00:41:24;;;;;;;14.20;9.20;;;;;;;;;;4906263;29;20309;-59
2020/12/15 00:43:50;;;;;;;9.77;8.77;;;;;;;;;;4905903;29;20254;-58
2020/12/15 00:46:15;;;;;;;10.83;9.20;;;;;;;;;;4905236;29;20667;-59
2020/12/15 00:48:45;;;;;;;9.90;8.43;;;;;;;;;;4905684;29;20869;-58
2020/12/15 00:51:14;;;;;;;9.57;8.47;;;;;;;;;;4906166;29;20180;-58
2020/12/15 00:53:39;;;;;;;9.73;8.60;;;;;;;;;;4906186;29;20231;-58
2020/12/15 00:56:05;;;;;;;9.97;8.00;;;;;;;;;;4904770;29;20183;-58
2020/12/15 00:58:30;;;;;;;9.57;8.20;;;;;;;;;;4905763;29;20970;-58
2020/12/15 01:00:55;;;;;;;9.73;8.37;;;;;;;;;;4905564;29;20276;-58
2020/12/15 01:03:21;;;;;;;11.50;8.73;;;;;;;;;;4904406;29;20194;-59
2020/12/15 01:05:47;;;;;;;10.43;8.97;;;;;;;;;;4904310;29;20220;-57
2020/12/15 01:08:12;;;;;;;9.60;8.60;;;;;;;;;;4905574;29;21022;-58
2020/12/15 01:10:37;;;;;;;9.37;8.33;;;;;;;;;;4901845;29;20731;-58
2020/12/15 01:13:03;;;;;;;11.60;9.13;;;;;;;;;;4901422;29;20206;-58
2020/12/15 01:15:29;;;;;;;10.53;9.27;;;;;;;;;;4904743;29;20192;-58
2020/12/15 01:17:55;;;;;;;11.03;9.27;;;;;;;;;;4912127;29;20749;-58
2020/12/15 01:20:31;;;;;;;12.03;9.67;;;;;;;;;;4903728;29;20198;-58
2020/12/15 01:22:57;;;;;;;11.47;9.67;;;;;;;;;;4919718;29;20219;-59
2020/12/15 01:25:32;;;;;;;11.70;9.53;;;;;;;;;;4903085;29;20230;-58
2020/12/15 01:27:59;;;;;;;12.57;9.70;;;;;;;;;;4903484;29;20734;-58
2020/12/15 01:30:26;;;;;;;10.90;9.40;;;;;;;;;;4918569;29;20349;-58
2020/12/15 01:33:29;;;;;;;10.97;9.53;;;;;;;;;;4904606;29;20206;-58
2020/12/15 01:36:07;;;;;;;11.20;10.00;;;;;;;;;;4903704;29;20194;-58
2020/12/15 01:38:44;;;;;;;11.50;9.47;;;;;;;;;;4919106;29;20296;-58
2020/12/15 01:41:12;;;;;;;10.80;9.70;;;;;;;;;;4905740;29;20217;-58
2020/12/15 01:43:38;;;;;;;10.67;9.33;;;;;;;;;;4918599;29;20644;-58
2020/12/15 01:46:03;;;;;;;11.97;9.27;;;;;;;;;;4918009;29;20239;-58
2020/12/15 01:48:32;;;;;;;11.13;9.93;;;;;;;;;;4904225;29;20309;-58
2020/12/15 01:50:59;;;;;;;12.30;9.57;;;;;;;;;;4904525;29;20324;-58
2020/12/15 01:53:26;;;;;;;10.80;9.70;;;;;;;;;;4918843;29;20197;-58
2020/12/15 01:55:53;;;;;;;11.07;9.97;;;;;;;;;;4901537;29;20186;-58
2020/12/15 01:58:19;;;;;;;10.53;9.43;;;;;;;;;;4902734;29;20216;-59
2020/12/15 02:00:53;;;;;;;10.77;9.67;;;;;;;;;;4918524;29;20199;-61
2020/12/15 02:03:21;;;;;;;10.77;9.23;;;;;;;;;;4904589;29;20530;-60
2020/12/15 02:06:09;;;;;;;11.20;9.50;;;;;;;;;;4902196;29;20828;-60
2020/12/15 02:09:04;;;;;;;11.63;10.37;;;;;;;;;;4903128;29;20241;-60
2020/12/15 02:11:30;;;;;;;9.77;8.77;;;;;;;;;;4904665;29;20197;-61
2020/12/15 02:13:56;;;;;;;11.13;9.93;;;;;;;;;;4903324;29;20195;-60
2020/12/15 02:16:21;;;;;;;11.23;9.73;;;;;;;;;;4902095;29;20759;-61
2020/12/15 02:18:52;;;;;;;10.77;9.37;;;;;;;;;;4918230;29;20226;-61
2020/12/15 02:21:17;;;;;;;11.63;10.17;;;;;;;;;;4918288;29;20916;-61
2020/12/15 02:23:53;;;;;;;10.10;9.10;;;;;;;;;;4912406;29;20215;-60
2020/12/15 02:26:40;;;;;;;9.97;8.97;;;;;;;;;;4900753;29;20697;-61
2020/12/15 02:29:05;;;;;;;10.47;9.20;;;;;;;;;;4916956;29;20188;-60
2020/12/15 02:31:31;;;;;;;10.77;9.40;;;;;;;;;;4918553;29;20191;-60
2020/12/15 02:33:57;;;;;;;11.03;9.83;;;;;;;;;;4918943;29;20191;-61
2020/12/15 02:36:27;;;;;;;11.63;9.60;;;;;;;;;;4915623;29;20320;-61
2020/12/15 02:39:07;;;;;;;11.77;9.50;;;;;;;;;;4900449;29;20243;-61
2020/12/15 02:41:32;;;;;;;10.27;9.20;;;;;;;;;;4918211;29;20823;-60
2020/12/15 02:44:02;;;;;;;10.63;8.93;;;;;;;;;;4918330;29;20238;-61
2020/12/15 02:46:28;;;;;;;10.87;9.63;;;;;;;;;;4901943;29;20571;-61
2020/12/15 02:48:54;;;;;;;9.80;8.83;;;;;;;;;;4918465;29;20218;-61
2020/12/15 02:51:20;;;;;;;11.93;9.40;;;;;;;;;;4918615;29;20194;-61
2020/12/15 02:54:00;;;;;;;11.50;9.83;;;;;;;;;;4918297;29;20190;-61
2020/12/15 02:56:26;;;;;;;11.40;9.80;;;;;;;;;;4910439;29;20739;-60
2020/12/15 02:58:52;;;;;;;10.07;9.07;;;;;;;;;;4918224;29;20306;-61
2020/12/15 03:01:18;;;;;;;11.83;9.17;;;;;;;;;;4904264;29;20559;-61
2020/12/15 03:03:46;;;;;;;10.90;9.33;;;;;;;;;;4902190;29;20615;-61
2020/12/15 03:06:21;;;;;;;11.93;9.60;;;;;;;;;;4917055;29;20198;-60
2020/12/15 03:08:49;;;;;;;11.17;9.10;;;;;;;;;;4912550;29;20229;-60
2020/12/15 03:11:20;;;;;;;10.47;8.90;;;;;;;;;;4894040;29;20184;-61
2020/12/15 03:13:46;;;;;;;11.03;9.57;;;;;;;;;;4902365;29;20225;-61
2020/12/15 03:16:11;;;;;;;10.13;9.03;;;;;;;;;;4917321;29;20242;-61
2020/12/15 03:18:37;;;;;;;9.87;8.87;;;;;;;;;;4917424;29;20813;-61
2020/12/15 03:21:04;;;;;;;10.20;9.10;;;;;;;;;;4902270;29;20282;-61
2020/12/15 03:23:31;;;;;;;10.43;9.33;;;;;;;;;;4901731;29;20287;-61
2020/12/15 03:25:57;;;;;;;9.97;8.97;;;;;;;;;;4901831;29;20790;-61
2020/12/15 03:28:22;;;;;;;10.27;9.23;;;;;;;;;;4917932;29;20316;-60
2020/12/15 03:30:50;;;;;;;10.77;9.27;;;;;;;;;;4917998;29;20197;-61
2020/12/15 03:33:16;;;;;;;10.20;8.70;;;;;;;;;;4902975;29;20177;-60
2020/12/15 03:35:42;;;;;;;8.53;7.67;;;;;;;;;;4910468;29;20189;-60
2020/12/15 03:38:13;;;;;;;13.17;9.50;;;;;;;;;;4901912;29;20959;-60
2020/12/15 03:40:50;;;;;;;10.63;9.27;;;;;;;;;;4916187;29;20204;-61
2020/12/15 03:43:53;;;;;;;11.00;9.90;;;;;;;;;;4903778;29;20233;-60
2020/12/15 03:46:27;;;;;;;13.13;10.60;;;;;;;;;;4920421;29;20204;-60
2020/12/15 03:48:57;;;;;;;12.07;10.73;;;;;;;;;;4918286;29;20208;-61
2020/12/15 03:51:23;;;;;;;11.87;9.27;;;;;;;;;;4899069;29;20198;-63
2020/12/15 03:54:08;;;;;;;11.93;10.63;;;;;;;;;;4906388;29;20192;-62
2020/12/15 03:56:46;;;;;;;12.30;10.70;;;;;;;;;;4921591;29;20212;-60
2020/12/15 03:59:11;;;;;;;11.07;9.97;;;;;;;;;;4922722;29;20809;-61
2020/12/15 04:01:37;;;;;;;11.30;10.10;;;;;;;;;;4922704;29;20199;-60
2020/12/15 04:04:04;;;;;;;12.37;10.77;;;;;;;;;;4922471;29;20212;-60
2020/12/15 04:06:37;;;;;;;11.40;10.20;;;;;;;;;;4906599;29;20200;-60
2020/12/15 04:09:10;;;;;;;14.30;10.57;;;;;;;;;;4905702;29;20201;-60
2020/12/15 04:11:35;;;;;;;11.33;10.07;;;;;;;;;;4906355;29;20199;-60
2020/12/15 04:14:01;;;;;;;12.77;10.50;;;;;;;;;;4920881;29;20230;-60
2020/12/15 04:16:27;;;;;;;12.17;10.63;;;;;;;;;;4921022;29;20218;-60
2020/12/15 04:19:00;;;;;;;11.57;10.37;;;;;;;;;;4905025;29;20271;-60
2020/12/15 04:21:28;;;;;;;11.90;10.70;;;;;;;;;;4920296;29;20736;-60
2020/12/15 04:23:57;;;;;;;12.83;11.23;;;;;;;;;;4904323;29;20219;-60
2020/12/15 04:26:24;;;;;;;13.07;11.67;;;;;;;;;;4910569;29;20234;-60
2020/12/15 04:28:53;;;;;;;20.37;15.80;;;;;;;;;;4918871;29;20207;-61
2020/12/15 04:31:19;;;;;;;12.87;11.57;;;;;;;;;;4897392;29;20194;-60
2020/12/15 04:33:47;;;;;;;14.17;11.80;;;;;;;;;;4902515;29;20197;-61
2020/12/15 04:36:13;;;;;;;17.90;13.47;;;;;;;;;;4903428;29;20276;-61
2020/12/15 04:38:38;;;;;;;12.40;11.10;;;;;;;;;;4904891;29;20960;-60
2020/12/15 04:41:13;;;;;;;12.90;11.47;;;;;;;;;;4904783;29;20196;-60
2020/12/15 04:43:43;;;;;;;12.57;11.37;;;;;;;;;;4920703;29;20201;-61
2020/12/15 04:46:11;;;;;;;13.47;11.00;;;;;;;;;;4919532;29;21086;-60
2020/12/15 04:48:42;;;;;;;14.32;12.30;;;;;;;;;;4904457;29;20580;-61
2020/12/15 04:51:12;;;;;;;14.10;11.83;;;;;;;;;;4921038;29;20261;-61
2020/12/15 04:53:53;;;;;;;13.20;11.80;;;;;;;;;;4920649;29;20181;-61
2020/12/15 04:56:31;;;;;;;14.40;12.97;;;;;;;;;;4903279;29;20658;-60
2020/12/15 04:59:11;;;;;;;14.53;13.03;;;;;;;;;;4920108;29;20705;-60
2020/12/15 05:01:40;;;;;;;14.10;12.60;;;;;;;;;;4920522;29;20190;-60
2020/12/15 05:04:15;;;;;;;16.63;14.00;;;;;;;;;;4920004;29;20218;-61
2020/12/15 05:06:54;;;;;;;15.17;13.57;;;;;;;;;;4916151;29;20189;-61
2020/12/15 05:09:29;;;;;;;15.23;12.33;;;;;;;;;;4902115;29;20198;-60
2020/12/15 05:11:56;;;;;;;14.53;12.43;;;;;;;;;;4920024;29;20234;-62
2020/12/15 05:14:28;;;;;;;14.97;12.50;;;;;;;;;;4919722;29;20202;-60
2020/12/15 05:16:54;;;;;;;16.20;12.80;;;;;;;;;;4918580;29;20263;-61
2020/12/15 05:19:42;;;;;;;16.10;12.37;;;;;;;;;;4903428;29;20223;-60
2020/12/15 05:22:07;;;;;;;16.83;12.57;;;;;;;;;;4919629;29;20194;-64
2020/12/15 05:24:45;;;;;;;16.53;12.53;;;;;;;;;;4904244;29;20215;-64
2020/12/15 05:27:14;;;;;;;17.07;13.40;;;;;;;;;;4913311;29;20608;-61
2020/12/15 05:29:51;;;;;;;18.50;14.33;;;;;;;;;;4904355;29;20309;-62
2020/12/15 05:32:24;;;;;;;17.47;14.23;;;;;;;;;;4897696;29;20197;-61
2020/12/15 05:35:29;;;;;;;18.00;14.87;;;;;;;;;;4904060;29;20302;-61
2020/12/15 05:38:14;;;;;;;18.53;16.17;;;;;;;;;;4904240;29;20242;-62
2020/12/15 05:40:39;;;;;;;16.53;14.73;;;;;;;;;;4899268;29;20199;-60
2020/12/15 05:43:24;;;;;;;18.87;15.67;;;;;;;;;;4896448;29;20557;-60
2020/12/15 05:45:50;;;;;;;19.33;16.60;;;;;;;;;;4918860;29;20294;-61
2020/12/15 05:48:24;;;;;;;18.27;15.80;;;;;;;;;;4903280;29;20340;-60
2020/12/15 05:50:55;;;;;;;18.13;15.77;;;;;;;;;;4903647;29;20190;-61
2020/12/15 05:53:20;;;;;;;18.43;15.93;;;;;;;;;;4903549;29;20186;-60
2020/12/15 05:55:45;;;;;;;19.67;16.60;;;;;;;;;;4897899;29;20698;-60
2020/12/15 05:58:14;;;;;;;18.60;16.50;;;;;;;;;;4900580;29;20223;-61
2020/12/15 06:00:39;;;;;;;17.47;15.67;;;;;;;;;;4904689;29;20301;-60
2020/12/15 06:03:06;;;;;;;19.10;16.03;;;;;;;;;;4903097;29;20206;-61
2020/12/15 06:05:35;;;;;;;18.30;15.83;;;;;;;;;;4903095;29;20220;-60
2020/12/15 06:08:01;;;;;;;18.63;16.10;;;;;;;;;;4897950;29;20963;-60
2020/12/15 06:10:27;;;;;;;20.30;17.23;;;;;;;;;;4903824;29;20714;-60
2020/12/15 06:12:54;;;;;;;18.37;15.43;;;;;;;;;;4888213;29;20190;-61
2020/12/15 06:15:19;;;;;;;18.57;16.53;;;;;;;;;;4894078;29;20201;-61
2020/12/15 06:17:45;;;;;;;17.50;15.60;;;;;;;;;;4894647;29;20228;-60
2020/12/15 06:20:11;;;;;;;18.83;16.33;;;;;;;;;;4888588;29;20285;-60
2020/12/15 06:22:36;;;;;;;19.23;16.60;;;;;;;;;;4900589;29;20199;-60
2020/12/15 06:25:02;;;;;;;18.83;16.63;;;;;;;;;;4888507;29;20244;-60
2020/12/15 06:27:35;;;;;;;20.25;16.45;;;;;;;;;;4892243;29;21016;-61
2020/12/15 06:30:00;;;;;;;20.37;17.33;;;;;;;;;;4891119;29;20200;-59
2020/12/15 06:32:26;;;;;;;17.87;15.97;;;;;;;;;;4891704;29;20545;-60
2020/12/15 06:34:52;;;;;;;20.20;16.63;;;;;;;;;;4892169;29;20198;-61
2020/12/15 06:37:18;;;;;;;23.53;17.23;;;;;;;;;;4892712;29;20228;-63
2020/12/15 06:40:00;;;;;;;21.10;16.10;;;;;;;;;;4891820;29;20579;-63
2020/12/15 06:42:26;;;;;;;21.90;17.77;;;;;;;;;;4891413;29;20302;-60
2020/12/15 06:45:07;;;;;;;19.53;16.70;;;;;;;;;;4899282;29;20216;-61
2020/12/15 06:47:33;;;;;;;19.92;17.65;;;;;;;;;;4895841;29;20691;-62
2020/12/15 06:50:09;;;;;;;19.03;16.63;;;;;;;;;;4901362;29;20207;-60
2020/12/15 06:52:34;;;;;;;20.63;16.43;;;;;;;;;;4896284;29;20250;-60
2020/12/15 06:54:59;;;;;;;18.23;16.10;;;;;;;;;;4902084;29;20653;-60
2020/12/15 06:57:32;;;;;;;20.00;16.37;;;;;;;;;;4886653;29;20215;-60
2020/12/15 06:59:57;;;;;;;26.63;20.85;;;;;;;;;;4895562;29;20709;-60
2020/12/15 07:02:27;;;;;;;18.27;15.88;;;;;;;;;;4892989;29;20204;-61
2020/12/15 07:04:53;;;;;;;19.65;15.77;;;;;;;;;;4884348;29;20231;-60
2020/12/15 07:07:18;;;;;;;21.37;16.67;;;;;;;;;;4901541;29;20211;-60
2020/12/15 07:09:44;;;;;;;19.73;16.10;;;;;;;;;;4885392;29;20580;-60
2020/12/15 07:12:10;;;;;;;18.35;16.35;;;;;;;;;;4884166;29;20204;-61
2020/12/15 07:14:35;;;;;;;18.47;16.00;;;;;;;;;;4911720;29;20271;-61
2020/12/15 07:17:01;;;;;;;19.05;17.05;;;;;;;;;;4893032;29;20603;-61
2020/12/15 07:19:27;;;;;;;18.33;15.07;;;;;;;;;;4894011;29;20754;-62
2020/12/15 07:21:52;;;;;;;20.43;16.03;;;;;;;;;;4898667;29;20191;-61
2020/12/15 07:24:18;;;;;;;18.37;16.27;;;;;;;;;;4896409;29;20261;-61
2020/12/15 07:26:43;;;;;;;20.77;16.17;;;;;;;;;;4887841;29;20196;-60
2020/12/15 07:29:08;;;;;;;19.60;16.07;;;;;;;;;;4888149;29;20208;-61
2020/12/15 07:31:34;;;;;;;20.80;16.07;;;;;;;;;;4899733;29;20195;-61
2020/12/15 07:34:10;;;;;;;17.13;15.27;;;;;;;;;;4898742;29;20207;-60
2020/12/15 07:36:40;;;;;;;19.15;15.45;;;;;;;;;;4890501;29;20206;-63
2020/12/15 07:39:05;;;;;;;18.50;15.93;;;;;;;;;;4905954;29;20214;-61
2020/12/15 07:41:36;;;;;;;18.57;16.43;;;;;;;;;;4894975;29;20208;-65
2020/12/15 07:44:02;;;;;;;19.17;16.67;;;;;;;;;;4888497;29;20301;-60
2020/12/15 07:46:27;;;;;;;17.10;14.53;;;;;;;;;;4887956;29;20192;-60
2020/12/15 07:48:53;;;;;;;18.77;15.73;;;;;;;;;;4893430;29;20220;-60
2020/12/15 07:51:19;;;;;;;19.67;16.00;;;;;;;;;;4893846;29;20200;-60
2020/12/15 07:53:54;;;;;;;19.03;15.97;;;;;;;;;;4884376;29;20193;-61
2020/12/15 07:56:19;;;;;;;19.23;15.93;;;;;;;;;;4888373;29;20207;-60
2020/12/15 07:58:49;;;;;;;20.80;15.65;;;;;;;;;;4886738;29;20755;-60
2020/12/15 08:01:25;;;;;;;23.73;21.23;;;;;;;;;;4886902;29;20197;-60
2020/12/15 08:04:07;;;;;;;39.03;34.80;;;;;;;;;;4887236;29;20220;-60
2020/12/15 08:06:51;;;;;;;18.25;14.13;;;;;;;;;;4886344;29;20294;-59
2020/12/15 08:09:16;;;;;;;21.98;19.58;;;;;;;;;;4894984;29;20299;-67
2020/12/15 08:11:48;;;;;;;16.40;14.40;;;;;;;;;;4896349;29;20238;-73
2020/12/15 08:14:14;;;;;;;16.90;13.83;;;;;;;;;;4889474;29;20287;-68
2020/12/15 08:16:41;;;;;;;15.27;13.20;;;;;;;;;;4895722;29;20267;-67
2020/12/15 08:19:06;;;;;;;17.75;14.38;;;;;;;;;;4889713;29;20248;-64
2020/12/15 08:21:45;;;;;;;14.98;11.18;;;;;;;;;;4889001;29;20998;-62
2020/12/15 08:24:12;;;;;;;17.67;14.10;;;;;;;;;;4888552;29;20331;-63
2020/12/15 08:26:38;;;;;;;16.95;12.63;;;;;;;;;;4901737;29;20228;-72
2020/12/15 08:29:09;;;;;;;17.27;12.70;;;;;;;;;;4889790;29;20308;-63
2020/12/15 08:31:35;;;;;;;14.43;12.90;;;;;;;;;;4898787;29;20211;-67
2020/12/15 08:34:01;;;;;;;16.52;13.73;;;;;;;;;;4892018;29;20580;-62
2020/12/15 08:36:26;;;;;;;16.58;13.60;;;;;;;;;;4894652;29;20189;-60
2020/12/15 08:38:54;;;;;;;16.50;13.77;;;;;;;;;;4888841;29;20214;-63
2020/12/15 08:41:19;;;;;;;18.30;15.40;;;;;;;;;;4898014;29;20207;-63
2020/12/15 08:43:48;;;;;;;15.83;14.13;;;;;;;;;;4894671;29;20211;-63
2020/12/15 08:46:17;;;;;;;16.63;13.37;;;;;;;;;;4890255;29;20236;-61
2020/12/15 08:48:43;;;;;;;16.00;13.60;;;;;;;;;;4898157;29;20203;-59
2020/12/15 08:51:12;;;;;;;15.80;12.90;;;;;;;;;;4897902;29;20196;-60
2020/12/15 08:53:38;;;;;;;15.48;13.05;;;;;;;;;;4880784;29;20203;-60
2020/12/15 08:56:11;;;;;;;15.40;13.37;;;;;;;;;;4894139;29;20207;-60
2020/12/15 08:58:36;;;;;;;16.13;12.80;;;;;;;;;;4891144;29;20294;-61
2020/12/15 09:01:02;;;;;;;16.80;12.80;;;;;;;;;;4896788;29;20857;-60
2020/12/15 09:03:29;;;;;;;14.00;11.67;;;;;;;;;;4892134;29;20189;-60
2020/12/15 09:05:57;;;;;;;14.87;12.23;;;;;;;;;;4885935;29;20212;-60
2020/12/15 09:08:26;;;;;;;15.43;12.52;;;;;;;;;;4892908;29;20919;-60
2020/12/15 09:10:52;;;;;;;15.60;12.13;;;;;;;;;;4898152;29;20212;-61
2020/12/15 09:13:17;;;;;;;15.30;12.27;;;;;;;;;;4886919;29;20183;-61
2020/12/15 09:15:56;;;;;;;13.80;12.40;;;;;;;;;;4893338;29;20200;-61
2020/12/15 09:18:37;;;;;;;13.23;11.23;;;;;;;;;;4887575;29;20260;-61
2020/12/15 09:21:09;;;;;;;14.40;11.57;;;;;;;;;;4887105;29;20188;-61
2020/12/15 09:23:34;;;;;;;16.75;11.93;;;;;;;;;;4888323;29;20223;-61
2020/12/15 09:25:59;;;;;;;13.98;11.80;;;;;;;;;;4886980;29;20222;-60
2020/12/15 09:28:25;;;;;;;13.95;12.25;;;;;;;;;;4886803;29;20213;-60
2020/12/15 09:30:50;;;;;;;14.93;11.70;;;;;;;;;;4896203;29;20192;-61
2020/12/15 09:33:16;;;;;;;12.73;11.27;;;;;;;;;;4890130;29;20550;-60
2020/12/15 09:35:41;;;;;;;15.02;11.23;;;;;;;;;;4895708;29;20644;-61
2020/12/15 09:38:06;;;;;;;13.18;11.15;;;;;;;;;;4896525;29;20287;-60
2020/12/15 09:40:32;;;;;;;12.60;11.30;;;;;;;;;;4898856;29;20231;-61
2020/12/15 09:42:58;;;;;;;15.57;10.52;;;;;;;;;;4887881;29;20211;-60
2020/12/15 09:45:23;;;;;;;13.65;11.20;;;;;;;;;;4884109;29;20220;-61
2020/12/15 09:47:50;;;;;;;12.80;11.50;;;;;;;;;;4886134;29;20568;-60
2020/12/15 09:50:15;;;;;;;14.05;10.90;;;;;;;;;;4899747;29;20188;-60
2020/12/15 09:52:40;;;;;;;12.98;10.75;;;;;;;;;;4893054;29;20200;-61
2020/12/15 09:55:06;;;;;;;11.32;9.48;;;;;;;;;;4886507;29;20639;-60
2020/12/15 09:57:31;;;;;;;12.15;10.50;;;;;;;;;;4890252;29;20226;-60
2020/12/15 09:59:56;;;;;;;12.85;10.77;;;;;;;;;;4889103;29;20211;-61
2020/12/15 10:02:22;;;;;;;14.93;11.10;;;;;;;;;;4899660;29;20215;-61
2020/12/15 10:04:47;;;;;;;12.20;10.23;;;;;;;;;;4898292;29;20902;-60
2020/12/15 10:07:13;;;;;;;13.50;10.68;;;;;;;;;;4901470;29;20221;-60
2020/12/15 10:09:38;;;;;;;11.52;10.32;;;;;;;;;;4903005;29;20184;-61
2020/12/15 10:12:03;;;;;;;12.70;10.95;;;;;;;;;;4894246;29;20204;-61
2020/12/15 10:14:29;;;;;;;11.15;8.50;;;;;;;;;;4897851;29;20284;-62
2020/12/15 10:16:54;;;;;;;13.90;10.35;;;;;;;;;;4884132;29;20220;-61
2020/12/15 10:19:19;;;;;;;12.48;10.65;;;;;;;;;;4884478;29;20217;-60
2020/12/15 10:21:45;;;;;;;11.63;10.30;;;;;;;;;;4886470;29;20181;-60
2020/12/15 10:24:10;;;;;;;14.18;10.07;;;;;;;;;;4885850;29;20851;-60
2020/12/15 10:26:36;;;;;;;15.75;12.07;;;;;;;;;;4885485;29;20280;-60
2020/12/15 10:29:01;;;;;;;12.70;11.18;;;;;;;;;;4892670;29;20331;-60
2020/12/15 10:31:27;;;;;;;12.33;9.90;;;;;;;;;;4899624;29;20263;-60
2020/12/15 10:33:52;;;;;;;12.38;10.80;;;;;;;;;;4889756;29;20236;-61
2020/12/15 10:36:18;;;;;;;12.98;9.95;;;;;;;;;;4886800;29;20203;-61
2020/12/15 10:38:44;;;;;;;13.02;11.20;;;;;;;;;;4900014;29;20622;-60
2020/12/15 10:41:09;;;;;;;12.60;11.20;;;;;;;;;;4883761;29;20359;-61
2020/12/15 10:43:35;;;;;;;12.75;10.73;;;;;;;;;;4894869;29;20191;-60
2020/12/15 10:46:00;;;;;;;13.30;11.18;;;;;;;;;;4893199;29;20247;-60
2020/12/15 10:48:26;;;;;;;12.15;10.77;;;;;;;;;;4885819;29;20211;-63
2020/12/15 10:50:51;;;;;;;12.77;10.60;;;;;;;;;;4885530;29;20186;-60
2020/12/15 10:53:18;;;;;;;14.50;11.80;;;;;;;;;;4890076;29;20283;-57
2020/12/15 10:55:47;;;;;;;14.65;11.20;;;;;;;;;;4894892;29;20244;-58
2020/12/15 10:58:12;;;;;;;13.30;11.50;;;;;;;;;;4897693;29;20219;-57
2020/12/15 11:00:38;;;;;;;12.30;10.82;;;;;;;;;;4885578;29;20220;-58
2020/12/15 11:03:03;;;;;;;12.57;10.07;;;;;;;;;;4905141;29;20746;-58
2020/12/15 11:05:28;;;;;;;13.57;11.23;;;;;;;;;;4888772;29;20228;-56
2020/12/15 11:07:53;;;;;;;14.15;11.30;;;;;;;;;;4901683;29;20275;-56
2020/12/15 11:10:19;;;;;;;11.73;9.85;;;;;;;;;;4893613;29;20196;-56
2020/12/15 11:12:44;;;;;;;12.25;10.05;;;;;;;;;;4888637;29;20192;-56
2020/12/15 11:15:09;;;;;;;12.77;10.30;;;;;;;;;;4891779;29;20885;-57
2020/12/15 11:17:35;;;;;;;10.43;9.30;;;;;;;;;;4884155;29;20216;-57
2020/12/15 11:20:00;;;;;;;14.15;10.25;;;;;;;;;;4892700;29;20661;-56
2020/12/15 11:22:25;;;;;;;13.00;10.77;;;;;;;;;;4890657;29;21033;-56
2020/12/15 11:24:51;;;;;;;13.40;10.20;;;;;;;;;;4885917;29;20772;-58
2020/12/15 11:27:16;;;;;;;11.80;10.48;;;;;;;;;;4884084;29;20789;-58
2020/12/15 11:29:42;;;;;;;13.25;10.80;;;;;;;;;;4883478;29;20199;-58
2020/12/15 11:32:07;;;;;;;14.10;10.20;;;;;;;;;;4892341;29;20189;-59
2020/12/15 11:34:33;;;;;;;12.35;11.05;;;;;;;;;;4883435;29;20283;-56
2020/12/15 11:36:58;;;;;;;13.20;10.23;;;;;;;;;;4882666;29;20217;-57
2020/12/15 11:39:23;;;;;;;11.95;10.32;;;;;;;;;;4891335;29;20205;-57
2020/12/15 11:41:49;;;;;;;12.07;10.43;;;;;;;;;;4889482;29;20288;-58
2020/12/15 11:44:15;;;;;;;13.63;10.27;;;;;;;;;;4889546;29;20224;-58
2020/12/15 11:46:41;;;;;;;15.55;10.32;;;;;;;;;;4892375;29;20679;-57
2020/12/15 11:49:06;;;;;;;12.02;10.23;;;;;;;;;;4888176;29;20217;-57
2020/12/15 11:51:31;;;;;;;70.63;17.48;;;;;;;;;;4891502;29;20192;-58
2020/12/15 11:53:57;;;;;;;34.90;13.70;;;;;;;;;;4890563;29;20199;-58
2020/12/15 11:56:22;;;;;;;14.35;9.63;;;;;;;;;;4898621;29;20177;-55
2020/12/15 11:58:47;;;;;;;13.32;9.77;;;;;;;;;;4892916;29;20215;-57
2020/12/15 12:01:14;;;;;;;12.50;9.13;;;;;;;;;;4884977;29;20189;-57
2020/12/15 12:03:39;;;;;;;10.80;9.48;;;;;;;;;;4898057;29;20243;-58
2020/12/15 12:06:04;;;;;;;10.73;9.27;;;;;;;;;;4887760;29;20229;-58
2020/12/15 12:08:30;;;;;;;12.13;10.15;;;;;;;;;;4892650;29;20228;-57
2020/12/15 12:10:55;;;;;;;13.05;10.63;;;;;;;;;;4887009;29;20196;-58
2020/12/15 12:13:21;;;;;;;11.00;9.68;;;;;;;;;;4889308;29;20683;-57
2020/12/15 12:15:46;;;;;;;11.40;9.80;;;;;;;;;;4896566;29;20207;-58
2020/12/15 12:18:11;;;;;;;10.88;9.55;;;;;;;;;;4888752;29;20243;-57
2020/12/15 12:20:37;;;;;;;11.60;9.32;;;;;;;;;;4891434;29;20236;-57
2020/12/15 12:23:03;;;;;;;13.93;9.52;;;;;;;;;;4890032;29;20208;-56
2020/12/15 12:25:28;;;;;;;13.38;9.70;;;;;;;;;;4897733;29;20744;-56
2020/12/15 12:27:54;;;;;;;12.45;9.68;;;;;;;;;;4891926;29;20227;-57
2020/12/15 12:30:19;;;;;;;12.13;9.35;;;;;;;;;;4887560;29;20188;-58
2020/12/15 12:32:45;;;;;;;11.25;9.27;;;;;;;;;;4892853;29;20758;-57
2020/12/15 12:35:10;;;;;;;10.55;9.38;;;;;;;;;;4885149;29;20197;-57
2020/12/15 12:37:35;;;;;;;11.20;9.60;;;;;;;;;;4893660;29;20251;-57
2020/12/15 12:40:01;;;;;;;11.27;8.68;;;;;;;;;;4894255;29;20200;-57
2020/12/15 12:42:26;;;;;;;9.90;8.90;;;;;;;;;;4894915;29;20400;-57
2020/12/15 12:44:51;;;;;;;12.68;9.68;;;;;;;;;;4887306;29;20656;-64
2020/12/15 12:47:17;;;;;;;10.07;9.00;;;;;;;;;;4900458;29;20239;-70
2020/12/15 12:49:42;;;;;;;11.13;9.70;;;;;;;;;;4893837;29;20240;-57
2020/12/15 12:52:07;;;;;;;11.35;8.85;;;;;;;;;;4894268;29;20552;-56
2020/12/15 12:54:32;;;;;;;11.10;8.90;;;;;;;;;;4895166;29;20206;-57
2020/12/15 12:56:58;;;;;;;11.20;9.07;;;;;;;;;;4888529;29;20212;-57
2020/12/15 12:59:23;;;;;;;11.15;8.55;;;;;;;;;;4894273;29;20200;-58
2020/12/15 13:01:48;;;;;;;11.35;9.50;;;;;;;;;;4893027;29;20720;-57
2020/12/15 13:04:14;;;;;;;10.27;8.73;;;;;;;;;;4894943;29;20230;-58
2020/12/15 13:06:39;;;;;;;9.43;8.43;;;;;;;;;;4892115;29;20255;-57
2020/12/15 13:09:04;;;;;;;11.85;9.38;;;;;;;;;;4890090;29;20216;-56
2020/12/15 13:11:30;;;;;;;11.73;9.00;;;;;;;;;;4888962;29;20288;-56
2020/12/15 13:13:55;;;;;;;12.13;9.00;;;;;;;;;;4894337;29;21020;-57
2020/12/15 13:16:21;;;;;;;10.40;9.27;;;;;;;;;;4898804;29;20249;-56
2020/12/15 13:48:25;;;;;;;13.68;9.45;;;;;;;;;;5049609;27;20581;-67
2020/12/15 13:50:50;;;;;;;11.32;8.05;;;;;;;;;;5042075;28;20191;-62
2020/12/15 13:53:15;;;;;;;12.23;7.82;;;;;;;;;;5045098;28;20188;-65
2020/12/15 13:55:42;;;;;;;11.45;7.30;;;;;;;;;;5043740;28;20191;-65
2020/12/15 13:58:07;;;;;;;13.38;9.13;;;;;;;;;;5052057;28;20269;-65
2020/12/15 14:00:35;;;;;;;12.93;8.02;;;;;;;;;;5048145;28;20876;-65
2020/12/15 14:03:01;;;;;;;11.10;9.70;;;;;;;;;;5054653;28;20186;-64
2020/12/15 14:05:26;;;;;;;12.20;9.40;;;;;;;;;;5051865;28;20200;-64
2020/12/15 14:07:51;;;;;;;11.50;8.65;;;;;;;;;;5049167;28;20214;-64
2020/12/15 14:10:17;;;;;;;11.40;8.30;;;;;;;;;;5046399;28;20204;-65
2020/12/15 14:12:42;;;;;;;10.00;8.30;;;;;;;;;;5044086;28;20293;-64
2020/12/15 14:15:07;;;;;;;13.73;8.50;;;;;;;;;;5046431;28;20197;-62
2020/12/15 14:17:33;;;;;;;12.23;8.77;;;;;;;;;;5052930;28;20214;-61
2020/12/15 14:19:58;;;;;;;16.77;9.97;;;;;;;;;;5056395;28;20202;-69
2020/12/15 14:22:23;;;;;;;14.83;11.00;;;;;;;;;;5050360;28;20237;-64
2020/12/15 14:24:48;;;;;;;11.87;9.73;;;;;;;;;;5041582;28;20195;-63
2020/12/15 14:27:14;;;;;;;11.85;8.52;;;;;;;;;;5041739;28;20226;-64
2020/12/15 14:29:39;;;;;;;11.38;8.65;;;;;;;;;;5043912;28;20187;-63
2020/12/15 14:32:04;;;;;;;12.50;8.90;;;;;;;;;;5045477;28;20192;-63
2020/12/15 14:34:30;;;;;;;11.30;8.67;;;;;;;;;;5045863;28;20191;-63
2020/12/15 14:36:57;;;;;;;17.05;10.93;;;;;;;;;;5040790;28;20325;-63
2020/12/15 14:39:22;;;;;;;19.13;13.88;;;;;;;;;;5041637;28;20192;-63
2020/12/15 14:41:49;;;;;;;13.30;11.53;;;;;;;;;;5038435;28;20792;-63
2020/12/15 14:44:14;;;;;;;20.10;18.10;;;;;;;;;;5042867;28;20276;-64
2020/12/15 14:46:40;;;;;;;26.90;24.13;;;;;;;;;;5045190;28;20300;-63
2020/12/15 14:49:08;;;;;;;24.25;21.65;;;;;;;;;;5041184;28;20598;-64
2020/12/15 14:51:33;;;;;;;13.37;11.33;;;;;;;;;;5041250;28;20221;-64
2020/12/15 14:53:58;;;;;;;12.70;8.20;;;;;;;;;;5041538;28;20189;-64
2020/12/15 14:56:24;;;;;;;12.90;9.33;;;;;;;;;;5051342;28;20206;-65